Time;durP1;ratioP1;P1;durP2;ratioP2;P2;SDS_P1;SDS_P2;PMS_P1;PMS_P2;Temp;Humidity;BMP_temperature;BMP_pressure;BME280_temperature;BME280_humidity;BME280_pressure;Samples;Min_cycle;Max_cycle;Signal;HPM_P1;HPM_P2
2022/05/09 00:00:28;;;;;;;6.55;3.00;;;11.50;95.40;;;;;;2070796;28;20421;-70
2022/05/09 00:01:29;;;;;;;4.25;2.90;;;11.50;95.80;;;;;;2070092;28;20018;-70
2022/05/09 00:02:29;;;;;;;5.28;2.97;;;11.50;96.00;;;;;;2072856;28;20029;-70
2022/05/09 00:03:31;;;;;;;4.90;2.97;;;11.50;96.40;;;;;;2072072;28;20028;-70
2022/05/09 00:04:32;;;;;;;3.72;2.67;;;11.50;96.70;;;;;;2071391;28;20013;-70
2022/05/09 00:05:32;;;;;;;3.65;2.72;;;11.50;96.00;;;;;;2072346;28;20442;-70
2022/05/09 00:06:33;;;;;;;6.15;2.47;;;11.40;96.50;;;;;;2072680;28;20034;-70
2022/05/09 00:07:33;;;;;;;4.43;3.08;;;11.40;96.40;;;;;;2070496;28;20037;-70
2022/05/09 00:08:34;;;;;;;5.07;2.83;;;11.40;96.70;;;;;;2072743;28;20068;-70
2022/05/09 00:09:35;;;;;;;5.28;2.83;;;11.40;96.90;;;;;;2069229;28;20018;-70
2022/05/09 00:10:35;;;;;;;4.03;2.45;;;11.40;96.70;;;;;;2069649;28;20501;-70
2022/05/09 00:11:36;;;;;;;5.30;2.70;;;11.40;96.90;;;;;;2068933;28;20088;-70
2022/05/09 00:12:37;;;;;;;6.38;2.50;;;11.40;97.00;;;;;;2060712;28;20040;-71
2022/05/09 00:13:38;;;;;;;6.68;2.55;;;11.30;96.70;;;;;;2069235;28;20033;-70
2022/05/09 00:14:38;;;;;;;5.00;2.70;;;11.30;96.50;;;;;;2072607;28;20040;-70
2022/05/09 00:15:39;;;;;;;4.35;2.35;;;11.30;97.10;;;;;;2070490;28;20030;-70
2022/05/09 00:16:40;;;;;;;5.38;3.10;;;11.30;97.10;;;;;;2070684;28;20105;-70
2022/05/09 00:17:41;;;;;;;5.18;2.70;;;11.30;97.50;;;;;;2066467;28;20033;-70
2022/05/09 00:18:41;;;;;;;5.28;2.90;;;11.30;96.80;;;;;;2066331;28;20019;-70
2022/05/09 00:19:42;;;;;;;3.78;2.55;;;11.30;97.10;;;;;;2068304;28;20162;-70
2022/05/09 00:20:43;;;;;;;8.02;2.88;;;11.20;97.20;;;;;;2073532;28;20148;-70
2022/05/09 00:21:44;;;;;;;7.75;3.22;;;11.20;97.30;;;;;;2070021;28;20018;-70
2022/05/09 00:22:51;;;;;;;5.53;3.00;;;11.20;97.50;;;;;;2068958;28;20080;-70
2022/05/09 00:23:52;;;;;;;5.38;2.72;;;11.20;97.80;;;;;;2071311;28;20394;-70
2022/05/09 00:24:52;;;;;;;5.60;3.35;;;11.20;97.90;;;;;;2069386;28;20018;-70
2022/05/09 00:25:53;;;;;;;6.03;3.20;;;11.20;98.40;;;;;;2069656;28;20022;-70
2022/05/09 00:26:54;;;;;;;5.22;2.80;;;11.20;98.30;;;;;;2068654;28;20077;-70
2022/05/09 00:27:55;;;;;;;5.20;2.65;;;11.20;98.80;;;;;;2070038;28;20026;-70
2022/05/09 00:28:56;;;;;;;6.78;3.22;;;11.10;98.80;;;;;;2069664;28;21577;-70
2022/05/09 00:29:58;;;;;;;2.67;2.30;;;11.10;98.70;;;;;;2066396;28;20859;-70
2022/05/09 00:30:58;;;;;;;5.75;2.95;;;11.10;98.60;;;;;;2069094;28;20018;-70
2022/05/09 00:32:00;;;;;;;4.47;2.83;;;11.10;98.40;;;;;;2072401;28;20034;-70
2022/05/09 00:33:00;;;;;;;5.70;3.38;;;11.10;98.60;;;;;;2072630;28;20033;-70
2022/05/09 00:34:01;;;;;;;4.22;2.90;;;11.10;98.40;;;;;;2072637;28;20196;-70
2022/05/09 00:35:02;;;;;;;5.32;3.20;;;11.10;99.00;;;;;;2071083;28;20033;-70
2022/05/09 00:36:03;;;;;;;5.13;2.83;;;11.00;98.40;;;;;;2070486;28;20038;-70
2022/05/09 00:37:04;;;;;;;5.05;3.15;;;11.00;98.80;;;;;;2072524;28;20531;-70
2022/05/09 00:38:07;;;;;;;6.32;3.03;;;11.00;99.40;;;;;;2068554;28;20611;-70
2022/05/09 00:39:08;;;;;;;4.22;3.33;;;11.00;99.10;;;;;;2071219;28;20048;-70
2022/05/09 00:40:11;;;;;;;6.93;2.80;;;11.00;99.50;;;;;;2073100;28;20045;-70
2022/05/09 00:42:32;;;;;;;6.28;2.47;;;11.00;99.70;;;;;;2068632;28;20022;-70
2022/05/09 00:43:35;;;;;;;4.35;2.75;;;10.90;99.30;;;;;;2068270;28;20053;-70
2022/05/09 00:44:38;;;;;;;4.55;3.13;;;10.90;99.90;;;;;;2071891;28;20405;-70
2022/05/09 00:45:38;;;;;;;4.80;2.97;;;10.90;99.90;;;;;;2069645;28;20029;-70
2022/05/09 00:46:42;;;;;;;3.40;2.78;;;10.90;99.90;;;;;;2073494;28;20061;-70
2022/05/09 00:47:43;;;;;;;4.40;3.13;;;10.80;99.70;;;;;;2071768;28;20033;-70
2022/05/09 00:48:44;;;;;;;5.63;3.20;;;10.80;99.10;;;;;;2071306;28;20095;-70
2022/05/09 00:49:49;;;;;;;5.03;3.20;;;10.80;99.90;;;;;;2082113;28;20103;-70
2022/05/09 00:50:50;;;;;;;5.57;2.70;;;10.80;99.90;;;;;;2078378;28;20024;-70
2022/05/09 00:52:22;;;;;;;4.53;3.20;;;10.80;99.90;;;;;;2069394;28;20470;-70
2022/05/09 00:53:25;;;;;;;4.38;2.65;;;10.80;99.90;;;;;;2068738;28;20030;-70
2022/05/09 00:54:30;;;;;;;8.85;3.40;;;10.70;99.90;;;;;;2072289;28;20037;-70
2022/05/09 00:55:42;;;;;;;3.63;2.90;;;10.70;99.90;;;;;;2069330;28;20096;-70
2022/05/09 00:56:55;;;;;;;8.07;3.53;;;10.70;99.90;;;;;;2070009;28;20092;-70
2022/05/09 00:58:08;;;;;;;7.43;3.05;;;10.70;99.90;;;;;;2066847;28;20084;-70
2022/05/09 00:59:14;;;;;;;4.00;3.15;;;10.70;99.90;;;;;;2069707;28;20057;-70
2022/05/09 01:00:18;;;;;;;6.45;3.33;;;10.70;99.90;;;;;;2074965;28;20029;-70
2022/05/09 01:01:20;;;;;;;6.05;3.33;;;10.70;99.90;;;;;;2067913;28;20694;-70
2022/05/09 01:02:21;;;;;;;3.95;3.15;;;10.60;99.90;;;;;;2064511;28;20462;-71
2022/05/09 01:03:41;;;;;;;6.72;3.40;;;10.60;99.90;;;;;;2067049;28;20280;-71
2022/05/09 01:04:57;;;;;;;5.30;3.15;;;10.60;99.90;;;;;;2071486;28;20632;-70
2022/05/09 01:05:58;;;;;;;5.00;2.85;;;10.60;99.90;;;;;;2069921;28;20128;-70
2022/05/09 01:06:59;;;;;;;4.60;3.30;;;10.60;99.90;;;;;;2073277;28;20053;-70
2022/05/09 01:08:00;;;;;;;6.28;3.35;;;10.60;99.90;;;;;;2069883;28;20393;-70
2022/05/09 01:09:00;;;;;;;6.20;3.20;;;10.50;99.90;;;;;;2068382;28;20745;-70
2022/05/09 01:10:01;;;;;;;4.82;3.38;;;10.50;99.90;;;;;;2073612;28;20128;-70
2022/05/09 01:11:03;;;;;;;5.32;3.15;;;10.60;99.90;;;;;;2071906;28;20026;-70
2022/05/09 01:12:05;;;;;;;7.75;3.08;;;10.50;99.90;;;;;;2072709;28;20056;-71
2022/05/09 01:13:10;;;;;;;7.30;3.85;;;10.50;99.90;;;;;;2066758;28;20038;-70
2022/05/09 01:14:17;;;;;;;5.53;3.60;;;10.50;99.90;;;;;;2070038;28;20033;-70
2022/05/09 01:15:18;;;;;;;5.25;3.00;;;10.50;99.90;;;;;;2067722;28;20371;-70
2022/05/09 01:16:20;;;;;;;4.45;3.38;;;10.50;99.90;;;;;;2068942;28;20057;-71
2022/05/09 01:17:23;;;;;;;6.80;3.35;;;10.50;99.90;;;;;;2071104;28;20026;-70
2022/05/09 01:18:23;;;;;;;7.28;4.05;;;10.50;99.90;;;;;;2070382;28;20025;-70
2022/05/09 01:19:31;;;;;;;4.60;3.42;;;10.50;99.90;;;;;;2060406;28;20026;-70
2022/05/09 01:20:35;;;;;;;5.30;3.28;;;10.50;99.90;;;;;;2070744;28;20458;-70
2022/05/09 01:21:40;;;;;;;5.88;3.55;;;10.40;99.90;;;;;;2071898;28;20022;-70
2022/05/09 01:22:42;;;;;;;7.22;3.67;;;10.40;99.90;;;;;;2072622;28;20596;-70
2022/05/09 01:23:43;;;;;;;6.95;3.78;;;10.40;99.90;;;;;;2069031;28;20049;-71
2022/05/09 01:24:44;;;;;;;6.00;3.70;;;10.40;99.90;;;;;;2070254;28;20048;-70
2022/05/09 01:25:44;;;;;;;9.95;3.83;;;10.40;99.90;;;;;;2069204;28;20026;-71
2022/05/09 01:26:46;;;;;;;5.82;3.72;;;10.40;99.90;;;;;;2070926;28;20018;-70
2022/05/09 01:27:47;;;;;;;5.82;3.78;;;10.40;99.90;;;;;;2070687;28;20470;-71
2022/05/09 01:28:47;;;;;;;6.03;3.45;;;10.30;99.90;;;;;;2070280;28;20416;-71
2022/05/09 01:29:51;;;;;;;4.13;3.08;;;10.30;99.90;;;;;;2071802;28;20029;-71
2022/05/09 01:30:56;;;;;;;6.05;3.55;;;10.30;99.90;;;;;;2071833;28;20080;-71
2022/05/09 01:31:58;;;;;;;4.10;3.65;;;10.40;99.90;;;;;;2072906;28;20540;-71
2022/05/09 01:33:07;;;;;;;6.72;4.15;;;10.30;99.90;;;;;;2068042;28;20030;-70
2022/05/09 01:34:10;;;;;;;6.40;3.85;;;10.30;99.90;;;;;;2065335;28;20117;-70
2022/05/09 01:35:20;;;;;;;5.25;3.70;;;10.30;99.90;;;;;;2068966;28;20080;-70
2022/05/09 01:36:30;;;;;;;6.20;3.70;;;10.30;99.90;;;;;;2070985;28;20057;-70
2022/05/09 01:37:32;;;;;;;7.25;3.67;;;10.30;99.90;;;;;;2072409;28;20156;-70
2022/05/09 01:38:53;;;;;;;5.50;4.10;;;10.30;99.90;;;;;;2072636;28;20028;-70
2022/05/09 01:39:54;;;;;;;5.47;3.50;;;10.30;99.90;;;;;;2070239;28;20033;-70
2022/05/09 01:40:55;;;;;;;8.55;3.78;;;10.30;99.90;;;;;;2072889;28;20028;-70
2022/05/09 01:41:55;;;;;;;5.90;3.33;;;10.30;99.90;;;;;;2069905;28;20477;-70
2022/05/09 01:42:56;;;;;;;9.52;4.25;;;10.30;99.90;;;;;;2072320;28;20370;-70
2022/05/09 01:43:57;;;;;;;8.70;4.25;;;10.30;99.90;;;;;;2070764;28;20030;-70
2022/05/09 01:44:57;;;;;;;6.55;3.90;;;10.30;99.90;;;;;;2071089;28;20013;-70
2022/05/09 01:45:58;;;;;;;6.07;3.70;;;10.30;99.90;;;;;;2070842;28;20431;-71
2022/05/09 01:49:39;;;;;;;4.85;3.80;;;10.30;99.90;;;;;;2069263;28;20021;-70
2022/05/09 01:50:39;;;;;;;6.80;3.72;;;10.30;99.90;;;;;;2072834;28;20036;-70
2022/05/09 01:51:42;;;;;;;8.52;4.82;;;10.30;99.90;;;;;;2071536;28;20045;-70
2022/05/09 01:52:44;;;;;;;10.80;4.90;;;10.30;99.90;;;;;;2070129;28;20029;-70
2022/05/09 01:53:53;;;;;;;9.18;4.97;;;10.30;99.90;;;;;;2069128;28;20067;-70
2022/05/09 01:54:54;;;;;;;10.35;4.30;;;10.30;99.90;;;;;;2070750;28;20045;-70
2022/05/09 01:55:55;;;;;;;11.35;4.55;;;10.30;99.90;;;;;;2069598;28;20109;-70
2022/05/09 01:56:56;;;;;;;7.60;3.60;;;10.40;99.90;;;;;;2059107;28;20091;-70
2022/05/09 01:57:56;;;;;;;9.15;4.60;;;10.40;99.90;;;;;;2068635;28;20046;-70
2022/05/09 01:58:57;;;;;;;7.55;4.57;;;10.40;99.90;;;;;;2070165;28;20026;-70
2022/05/09 01:59:58;;;;;;;10.40;4.20;;;10.40;99.90;;;;;;2073129;28;20139;-70
2022/05/09 02:00:58;;;;;;;11.25;4.93;;;10.40;99.90;;;;;;2071464;28;20032;-70
2022/05/09 02:02:03;;;;;;;8.07;4.70;;;10.40;99.90;;;;;;2066281;28;20022;-71
2022/05/09 02:03:04;;;;;;;11.68;4.60;;;10.40;99.90;;;;;;2067143;28;20104;-71
2022/05/09 02:04:05;;;;;;;9.57;4.05;;;10.40;99.90;;;;;;2072356;28;20021;-71
2022/05/09 02:05:06;;;;;;;12.57;4.90;;;10.50;99.90;;;;;;2068824;28;20030;-71
2022/05/09 02:06:08;;;;;;;9.50;4.30;;;10.50;99.90;;;;;;2071994;28;20499;-71
2022/05/09 02:07:14;;;;;;;13.82;5.50;;;10.50;99.90;;;;;;2071874;28;20045;-71
2022/05/09 02:08:14;;;;;;;10.27;4.43;;;10.50;99.90;;;;;;2067514;28;20030;-71
2022/05/09 02:09:16;;;;;;;10.68;5.25;;;10.50;99.90;;;;;;2070287;28;20569;-71
2022/05/09 02:10:16;;;;;;;7.47;4.00;;;10.50;99.90;;;;;;2069552;28;20095;-71
2022/05/09 02:11:17;;;;;;;9.65;4.40;;;10.50;99.90;;;;;;2070724;28;20022;-70
2022/05/09 02:12:19;;;;;;;8.73;4.32;;;10.50;99.90;;;;;;2071566;28;20100;-70
2022/05/09 02:13:20;;;;;;;10.73;4.80;;;10.50;99.90;;;;;;2072844;28;20033;-70
2022/05/09 02:14:20;;;;;;;5.80;4.07;;;10.60;99.90;;;;;;2069510;28;20026;-71
2022/05/09 02:15:21;;;;;;;10.80;5.07;;;10.60;99.90;;;;;;2072418;28;20171;-70
2022/05/09 02:16:21;;;;;;;11.40;4.15;;;10.60;99.90;;;;;;2071229;28;20029;-70
2022/05/09 02:17:22;;;;;;;15.07;4.45;;;10.60;99.90;;;;;;2071937;28;20022;-70
2022/05/09 02:18:23;;;;;;;9.00;4.53;;;10.60;99.90;;;;;;2070477;28;20053;-71
2022/05/09 02:19:23;;;;;;;8.38;4.63;;;10.60;99.90;;;;;;2072485;28;20032;-71
2022/05/09 02:20:24;;;;;;;10.02;4.88;;;10.60;99.90;;;;;;2067403;28;20049;-71
2022/05/09 02:21:25;;;;;;;8.98;4.65;;;10.60;99.90;;;;;;2073172;28;20033;-71
2022/05/09 02:22:26;;;;;;;7.10;4.30;;;10.70;99.90;;;;;;2070395;28;20451;-70
2022/05/09 02:23:27;;;;;;;10.20;4.50;;;10.70;99.90;;;;;;2071550;28;20470;-70
2022/05/09 02:24:29;;;;;;;9.18;4.10;;;10.70;99.90;;;;;;2071115;28;20152;-70
2022/05/09 02:25:29;;;;;;;9.55;4.20;;;10.70;99.90;;;;;;2069186;28;20029;-70
2022/05/09 02:26:30;;;;;;;10.90;3.85;;;10.70;99.90;;;;;;2070871;28;20034;-70
2022/05/09 02:27:31;;;;;;;9.57;4.65;;;10.70;99.90;;;;;;2072446;28;20053;-71
2022/05/09 02:28:33;;;;;;;7.18;4.22;;;10.70;99.90;;;;;;2070912;28;20107;-71
2022/05/09 02:29:33;;;;;;;5.32;3.28;;;10.70;99.90;;;;;;2072489;28;20105;-71
2022/05/09 02:30:35;;;;;;;6.03;3.85;;;10.70;99.90;;;;;;2071382;28;20025;-71
2022/05/09 02:31:36;;;;;;;5.43;3.85;;;10.70;99.90;;;;;;2071355;28;20468;-71
2022/05/09 02:32:38;;;;;;;9.30;4.38;;;10.70;99.90;;;;;;2074646;28;20029;-71
2022/05/09 02:33:39;;;;;;;5.80;3.40;;;10.70;99.90;;;;;;2071247;28;20025;-70
2022/05/09 02:34:39;;;;;;;8.00;3.75;;;10.70;99.90;;;;;;2070730;28;20037;-71
2022/05/09 02:35:41;;;;;;;6.38;3.80;;;10.70;99.90;;;;;;2071659;28;20084;-71
2022/05/09 02:36:41;;;;;;;7.28;3.83;;;10.70;99.90;;;;;;2069826;28;20029;-71
2022/05/09 02:37:42;;;;;;;6.90;3.92;;;10.70;99.90;;;;;;2071387;28;20014;-71
2022/05/09 02:38:42;;;;;;;7.85;3.85;;;10.70;99.90;;;;;;2070496;28;20101;-71
2022/05/09 02:39:44;;;;;;;6.10;3.83;;;10.70;99.90;;;;;;2067025;28;20251;-71
2022/05/09 02:40:46;;;;;;;7.60;3.95;;;10.70;99.90;;;;;;2076091;28;20033;-70
2022/05/09 02:41:46;;;;;;;6.22;3.80;;;10.70;99.90;;;;;;2070993;28;20392;-71
2022/05/09 02:42:47;;;;;;;8.10;3.97;;;10.70;99.90;;;;;;2068828;28;20184;-71
2022/05/09 02:43:48;;;;;;;6.57;4.38;;;10.70;99.90;;;;;;2071273;28;20025;-70
2022/05/09 02:44:50;;;;;;;7.63;3.88;;;10.60;99.90;;;;;;2074074;28;20029;-70
2022/05/09 02:45:51;;;;;;;4.72;3.30;;;10.60;99.90;;;;;;2070225;28;20017;-71
2022/05/09 02:46:52;;;;;;;8.50;4.05;;;10.60;99.90;;;;;;2072519;28;20045;-71
2022/05/09 02:47:53;;;;;;;7.20;3.95;;;10.60;99.90;;;;;;2067066;28;20038;-71
2022/05/09 02:48:55;;;;;;;6.68;3.17;;;10.60;99.90;;;;;;2072143;28;20667;-71
2022/05/09 02:49:55;;;;;;;7.25;4.55;;;10.60;99.90;;;;;;2072347;28;20610;-71
2022/05/09 02:50:56;;;;;;;8.10;3.97;;;10.60;99.90;;;;;;2071262;28;20380;-71
2022/05/09 02:51:57;;;;;;;6.47;3.67;;;10.60;99.90;;;;;;2073896;28;20022;-71
2022/05/09 02:52:57;;;;;;;8.13;4.32;;;10.60;99.90;;;;;;2071714;28;20686;-70
2022/05/09 02:53:58;;;;;;;5.93;3.60;;;10.50;99.90;;;;;;2070120;28;20100;-70
2022/05/09 02:54:59;;;;;;;6.18;3.53;;;10.50;99.90;;;;;;2072826;28;20104;-71
2022/05/09 02:55:59;;;;;;;7.57;4.57;;;10.50;99.90;;;;;;2073064;28;20116;-71
2022/05/09 02:57:00;;;;;;;8.70;3.92;;;10.50;99.90;;;;;;2070504;28;20049;-71
2022/05/09 02:58:01;;;;;;;7.68;4.05;;;10.50;99.90;;;;;;2070950;28;20159;-71
2022/05/09 02:59:02;;;;;;;8.05;4.20;;;10.50;99.90;;;;;;2070321;28;20018;-71
2022/05/09 03:00:07;;;;;;;6.43;3.80;;;10.50;99.90;;;;;;2074087;28;20477;-71
2022/05/09 03:01:08;;;;;;;8.55;4.15;;;10.50;99.90;;;;;;2071106;28;20026;-71
2022/05/09 03:02:09;;;;;;;10.43;4.50;;;10.50;99.90;;;;;;2072587;28;20021;-71
2022/05/09 03:04:41;;;;;;;7.32;4.05;;;10.40;99.90;;;;;;2072985;28;20029;-70
2022/05/09 03:05:43;;;;;;;6.43;4.10;;;10.40;99.90;;;;;;2070774;28;20025;-70
2022/05/09 03:06:44;;;;;;;9.88;4.30;;;10.40;99.90;;;;;;2073531;28;20476;-70
2022/05/09 03:07:45;;;;;;;10.73;4.40;;;10.30;99.90;;;;;;2071954;28;20025;-70
2022/05/09 03:08:45;;;;;;;6.88;4.40;;;10.30;99.90;;;;;;2073319;28;20018;-71
2022/05/09 03:09:48;;;;;;;5.45;3.42;;;10.40;99.90;;;;;;2071837;28;20029;-70
2022/05/09 03:10:48;;;;;;;7.18;4.00;;;10.30;99.90;;;;;;2073016;28;20064;-70
2022/05/09 03:11:49;;;;;;;10.82;4.68;;;10.30;99.90;;;;;;2070544;28;20088;-70
2022/05/09 03:12:50;;;;;;;9.23;4.13;;;10.30;99.90;;;;;;2073363;28;20029;-70
2022/05/09 03:13:51;;;;;;;6.10;3.95;;;10.30;99.90;;;;;;2067745;28;20029;-70
2022/05/09 03:14:51;;;;;;;7.82;4.25;;;10.30;99.90;;;;;;2072341;28;20017;-70
2022/05/09 03:15:52;;;;;;;7.57;4.18;;;10.30;99.90;;;;;;2073711;28;20175;-71
2022/05/09 03:16:52;;;;;;;6.32;4.20;;;10.30;99.90;;;;;;2068981;28;20393;-71
2022/05/09 03:17:53;;;;;;;8.02;4.18;;;10.30;99.90;;;;;;2071476;28;20030;-70
2022/05/09 03:18:53;;;;;;;5.40;3.50;;;10.30;99.90;;;;;;2070063;28;20104;-70
2022/05/09 03:19:54;;;;;;;7.97;4.13;;;10.30;99.90;;;;;;2072182;28;20022;-70
2022/05/09 03:20:55;;;;;;;7.80;4.38;;;10.30;99.90;;;;;;2074119;28;20488;-70
2022/05/09 03:21:56;;;;;;;7.90;4.05;;;10.20;99.90;;;;;;2068938;28;20026;-71
2022/05/09 03:22:57;;;;;;;8.38;3.90;;;10.20;99.90;;;;;;2071164;28;20498;-71
2022/05/09 03:23:57;;;;;;;8.95;4.40;;;10.20;99.90;;;;;;2065350;28;20403;-71
2022/05/09 03:24:58;;;;;;;7.75;3.88;;;10.20;99.90;;;;;;2068334;28;20030;-70
2022/05/09 03:25:58;;;;;;;10.98;3.70;;;10.20;99.90;;;;;;2067662;28;20486;-71
2022/05/09 03:27:01;;;;;;;8.82;4.35;;;10.20;99.90;;;;;;2073971;28;20033;-71
2022/05/09 03:28:06;;;;;;;7.72;3.67;;;10.20;99.90;;;;;;2074620;28;20017;-71
2022/05/09 03:29:07;;;;;;;7.60;4.47;;;10.20;99.90;;;;;;2076856;28;20025;-70
2022/05/09 03:30:09;;;;;;;8.60;4.45;;;10.20;99.90;;;;;;2076065;28;20040;-70
2022/05/09 03:31:09;;;;;;;6.13;4.57;;;10.10;99.90;;;;;;2072702;28;20108;-71
2022/05/09 03:32:10;;;;;;;8.13;4.40;;;10.10;99.90;;;;;;2069442;28;20034;-70
2022/05/09 03:33:11;;;;;;;7.90;4.30;;;10.10;99.90;;;;;;2069848;28;20054;-70
2022/05/09 03:34:13;;;;;;;6.65;3.83;;;10.10;99.90;;;;;;2067713;28;20121;-70
2022/05/09 03:35:14;;;;;;;8.73;4.13;;;10.10;99.90;;;;;;2068647;28;20321;-71
2022/05/09 03:36:15;;;;;;;8.15;4.03;;;10.10;99.90;;;;;;2069273;28;20507;-70
2022/05/09 03:37:16;;;;;;;7.70;3.72;;;10.00;99.90;;;;;;2069734;28;20413;-70
2022/05/09 03:38:16;;;;;;;7.97;4.68;;;10.00;99.90;;;;;;2070698;28;20022;-70
2022/05/09 03:39:17;;;;;;;9.80;4.53;;;10.00;99.90;;;;;;2073708;28;20029;-70
2022/05/09 03:40:20;;;;;;;7.25;3.92;;;10.00;99.90;;;;;;2072546;28;20477;-70
2022/05/09 03:41:20;;;;;;;7.32;4.15;;;10.00;99.90;;;;;;2069438;28;20018;-71
2022/05/09 03:42:21;;;;;;;6.07;4.18;;;10.00;99.90;;;;;;2069533;28;20022;-70
2022/05/09 03:43:21;;;;;;;7.05;4.15;;;10.00;99.90;;;;;;2066565;28;20106;-70
2022/05/09 03:44:22;;;;;;;6.45;4.10;;;10.00;99.90;;;;;;2071827;28;20017;-70
2022/05/09 03:45:23;;;;;;;13.00;4.10;;;10.00;99.90;;;;;;2068648;28;20027;-71
2022/05/09 03:46:24;;;;;;;7.93;3.97;;;10.00;99.90;;;;;;2069624;28;20030;-70
2022/05/09 03:47:25;;;;;;;6.50;4.22;;;10.00;99.90;;;;;;2067534;28;20573;-71
2022/05/09 03:48:25;;;;;;;7.35;4.28;;;9.90;99.90;;;;;;2072673;28;20528;-70
2022/05/09 03:49:27;;;;;;;6.72;4.20;;;9.90;99.90;;;;;;2065394;28;20030;-70
2022/05/09 03:50:28;;;;;;;7.95;4.75;;;9.90;99.90;;;;;;2066799;28;20022;-70
2022/05/09 03:51:28;;;;;;;7.05;4.10;;;9.90;99.90;;;;;;2069333;28;20022;-70
2022/05/09 03:52:30;;;;;;;7.80;3.97;;;9.90;99.90;;;;;;2070588;28;20104;-70
2022/05/09 03:53:31;;;;;;;7.35;4.38;;;9.90;99.90;;;;;;2069780;28;20030;-71
2022/05/09 03:54:32;;;;;;;7.93;4.80;;;9.90;99.90;;;;;;2071902;28;20494;-71
2022/05/09 03:55:33;;;;;;;6.55;4.38;;;9.90;99.90;;;;;;2069099;28;20644;-71
2022/05/09 03:56:34;;;;;;;9.43;4.82;;;9.90;99.90;;;;;;2072321;28;20030;-70
2022/05/09 03:57:43;;;;;;;6.53;3.95;;;9.90;99.90;;;;;;2066322;28;20122;-70
2022/05/09 03:58:43;;;;;;;8.57;4.72;;;9.90;99.90;;;;;;2068723;28;20128;-70
2022/05/09 03:59:44;;;;;;;8.55;4.13;;;9.80;99.90;;;;;;2070328;28;20100;-70
2022/05/09 04:00:44;;;;;;;7.47;4.85;;;9.90;99.90;;;;;;2066700;28;20096;-70
2022/05/09 04:01:45;;;;;;;7.65;4.22;;;9.80;99.90;;;;;;2072008;28;20060;-70
2022/05/09 04:02:46;;;;;;;8.88;3.85;;;9.80;99.90;;;;;;2068318;28;20399;-70
2022/05/09 04:03:47;;;;;;;7.45;4.47;;;9.80;99.90;;;;;;2068403;28;20081;-70
2022/05/09 04:04:47;;;;;;;10.23;4.25;;;9.80;99.90;;;;;;2072217;28;20054;-71
2022/05/09 04:05:48;;;;;;;10.43;4.82;;;9.80;99.90;;;;;;2071886;28;20037;-71
2022/05/09 04:06:51;;;;;;;10.45;5.28;;;9.80;99.90;;;;;;2070838;28;20026;-71
2022/05/09 04:07:52;;;;;;;6.40;3.95;;;9.90;99.90;;;;;;2071176;28;20032;-71
2022/05/09 04:08:53;;;;;;;6.28;4.25;;;9.80;99.90;;;;;;2071511;28;20028;-71
2022/05/09 04:09:53;;;;;;;11.43;5.00;;;9.80;99.90;;;;;;2070626;28;20026;-71
2022/05/09 04:10:55;;;;;;;9.57;4.30;;;9.80;99.90;;;;;;2070255;28;20026;-71
2022/05/09 04:11:55;;;;;;;6.47;4.18;;;9.80;99.90;;;;;;2070438;28;20018;-70
2022/05/09 04:12:57;;;;;;;9.75;5.15;;;9.80;99.90;;;;;;2069383;28;20018;-71
2022/05/09 04:13:57;;;;;;;6.90;3.97;;;9.80;99.90;;;;;;2068121;28;20039;-71
2022/05/09 04:17:36;;;;;;;9.35;4.22;;;9.80;99.90;;;;;;2069353;28;20057;-70
2022/05/09 04:18:42;;;;;;;11.43;4.95;;;9.80;99.90;;;;;;2066798;28;20030;-70
2022/05/09 04:19:44;;;;;;;10.90;5.28;;;9.80;99.90;;;;;;2065888;28;20520;-70
2022/05/09 04:20:46;;;;;;;8.57;4.68;;;9.90;99.90;;;;;;2069543;28;20014;-71
2022/05/09 04:21:47;;;;;;;11.95;4.95;;;9.90;99.90;;;;;;2069209;28;20319;-71
2022/05/09 04:22:48;;;;;;;10.00;5.38;;;9.90;99.90;;;;;;2067443;28;20520;-71
2022/05/09 04:23:50;;;;;;;6.95;3.95;;;9.90;99.90;;;;;;2070136;28;20053;-71
2022/05/09 04:24:51;;;;;;;10.45;5.22;;;9.90;99.90;;;;;;2065126;28;20026;-70
2022/05/09 04:25:52;;;;;;;9.30;5.07;;;9.90;99.90;;;;;;2066396;28;20068;-70
2022/05/09 04:26:52;;;;;;;8.25;4.97;;;10.00;99.90;;;;;;2068454;28;20109;-70
2022/05/09 04:27:54;;;;;;;9.88;4.95;;;10.00;99.90;;;;;;2062162;28;20023;-70
2022/05/09 04:28:54;;;;;;;9.68;4.75;;;10.00;99.90;;;;;;2066281;28;20471;-70
2022/05/09 04:29:56;;;;;;;8.95;4.90;;;10.00;99.90;;;;;;2073550;28;20029;-70
2022/05/09 04:30:57;;;;;;;9.35;4.80;;;10.00;99.90;;;;;;2070595;28;20116;-70
2022/05/09 04:31:58;;;;;;;7.57;4.40;;;10.10;99.90;;;;;;2072904;28;20504;-70
2022/05/09 04:32:58;;;;;;;9.50;5.18;;;10.10;99.90;;;;;;2072762;28;20664;-70
2022/05/09 04:34:00;;;;;;;8.80;4.82;;;10.10;99.90;;;;;;2070565;28;20018;-70
2022/05/09 04:35:01;;;;;;;8.23;4.28;;;10.10;99.90;;;;;;2072257;28;20017;-70
2022/05/09 04:36:03;;;;;;;12.32;5.20;;;10.10;99.90;;;;;;2070560;28;20027;-70
2022/05/09 04:37:04;;;;;;;8.13;5.03;;;10.10;99.90;;;;;;2069042;28;20033;-71
2022/05/09 04:38:06;;;;;;;8.00;4.70;;;10.10;99.90;;;;;;2071182;28;20152;-71
2022/05/09 04:39:06;;;;;;;9.43;5.10;;;10.10;99.90;;;;;;2071987;28;20014;-71
2022/05/09 04:40:08;;;;;;;9.45;4.75;;;10.20;99.90;;;;;;2071297;28;20060;-71
2022/05/09 04:41:10;;;;;;;10.85;5.30;;;10.20;99.90;;;;;;2067329;28;20525;-71
2022/05/09 04:42:12;;;;;;;9.90;5.60;;;10.20;99.90;;;;;;2062782;28;20033;-71
2022/05/09 04:43:13;;;;;;;16.98;5.80;;;10.20;99.90;;;;;;2068875;28;20109;-70
2022/05/09 04:44:13;;;;;;;12.70;5.68;;;10.20;99.90;;;;;;2071648;28;20034;-70
2022/05/09 04:45:15;;;;;;;8.77;4.97;;;10.20;99.90;;;;;;2070998;28;20493;-71
2022/05/09 04:46:16;;;;;;;7.75;5.43;;;10.20;99.90;;;;;;2071226;28;20516;-71
2022/05/09 04:47:17;;;;;;;12.98;5.63;;;10.30;99.90;;;;;;2071375;28;20036;-71
2022/05/09 04:48:20;;;;;;;14.13;5.97;;;10.30;99.90;;;;;;2073808;28;20029;-71
2022/05/09 04:49:20;;;;;;;10.98;4.97;;;10.30;99.90;;;;;;2072001;28;20033;-70
2022/05/09 04:50:24;;;;;;;8.98;6.00;;;10.30;99.90;;;;;;2073388;28;20025;-70
2022/05/09 04:51:24;;;;;;;13.73;5.50;;;10.40;99.90;;;;;;2071227;28;20516;-70
2022/05/09 04:52:25;;;;;;;10.10;5.57;;;10.40;99.90;;;;;;2070608;28;20409;-71
2022/05/09 04:53:26;;;;;;;10.45;5.22;;;10.40;99.90;;;;;;2068947;28;20102;-71
2022/05/09 04:54:28;;;;;;;10.65;5.40;;;10.40;99.90;;;;;;2073139;28;20030;-71
2022/05/09 04:55:29;;;;;;;13.57;5.82;;;10.50;99.90;;;;;;2070648;28;20045;-71
2022/05/09 04:56:29;;;;;;;11.82;5.32;;;10.50;99.90;;;;;;2071965;28;20025;-71
2022/05/09 04:57:30;;;;;;;11.18;5.60;;;10.50;99.90;;;;;;2073569;28;20436;-71
2022/05/09 04:58:32;;;;;;;12.27;5.53;;;10.60;99.90;;;;;;2072819;28;20104;-71
2022/05/09 04:59:32;;;;;;;13.02;5.68;;;10.60;99.90;;;;;;2072384;28;20021;-71
2022/05/09 05:00:33;;;;;;;12.95;6.10;;;10.70;99.90;;;;;;2070363;28;20284;-71
2022/05/09 05:01:33;;;;;;;9.85;5.25;;;10.70;99.90;;;;;;2071771;28;20735;-71
2022/05/09 05:02:34;;;;;;;8.00;4.75;;;10.70;99.90;;;;;;2070358;28;20560;-71
2022/05/09 05:03:34;;;;;;;9.55;4.70;;;10.80;99.90;;;;;;2068746;28;20075;-71
2022/05/09 05:04:35;;;;;;;10.88;5.57;;;10.80;99.90;;;;;;2068918;28;20018;-70
2022/05/09 05:05:35;;;;;;;9.68;5.00;;;10.90;99.90;;;;;;2073564;28;20025;-70
2022/05/09 05:06:36;;;;;;;10.93;5.13;;;11.00;99.90;;;;;;2068995;28;20025;-70
2022/05/09 05:07:37;;;;;;;13.32;5.35;;;11.00;99.90;;;;;;2071165;28;20483;-70
2022/05/09 05:08:37;;;;;;;11.65;5.10;;;11.10;99.90;;;;;;2070724;28;20375;-70
2022/05/09 05:09:38;;;;;;;18.85;5.90;;;11.10;99.90;;;;;;2073817;28;20029;-70
2022/05/09 05:10:38;;;;;;;11.07;5.63;;;11.20;99.90;;;;;;2071993;28;20514;-71
2022/05/09 05:11:39;;;;;;;9.30;5.10;;;11.30;99.90;;;;;;2072928;28;20121;-71
2022/05/09 05:12:40;;;;;;;11.30;4.88;;;11.40;99.90;;;;;;2071182;28;20034;-71
2022/05/09 05:13:41;;;;;;;8.20;4.60;;;11.40;99.90;;;;;;2071953;28;20067;-71
2022/05/09 05:14:42;;;;;;;12.80;5.40;;;11.50;99.90;;;;;;2072074;28;20104;-71
2022/05/09 05:15:42;;;;;;;11.70;4.70;;;11.60;99.90;;;;;;2071330;28;20022;-71
2022/05/09 05:17:01;;;;;;;11.23;5.30;;;11.70;99.90;;;;;;2071396;28;20128;-71
2022/05/09 05:18:01;;;;;;;10.02;5.53;;;11.80;99.90;;;;;;2068455;28;20018;-71
2022/05/09 05:19:02;;;;;;;11.77;6.43;;;11.90;99.90;;;;;;2070908;28;20022;-71
2022/05/09 05:20:12;;;;;;;10.20;5.53;;;11.90;99.90;;;;;;2068790;28;20037;-71
2022/05/09 05:21:13;;;;;;;14.30;5.40;;;12.00;99.90;;;;;;2069439;28;20029;-71
2022/05/09 05:22:15;;;;;;;11.75;5.30;;;12.10;99.90;;;;;;2070969;28;20029;-71
2022/05/09 05:23:17;;;;;;;12.43;5.57;;;12.20;99.90;;;;;;2070975;28;20021;-71
2022/05/09 05:24:18;;;;;;;14.38;5.30;;;12.30;99.90;;;;;;2072325;28;20448;-71
2022/05/09 05:25:22;;;;;;;9.77;4.97;;;12.30;99.90;;;;;;2070166;28;20152;-71
2022/05/09 05:26:23;;;;;;;9.38;5.32;;;12.40;99.90;;;;;;2072495;28;20064;-71
2022/05/09 05:27:23;;;;;;;11.65;5.07;;;12.50;99.90;;;;;;2071773;28;20044;-71
2022/05/09 05:28:24;;;;;;;14.02;5.55;;;12.60;99.90;;;;;;2070828;28;20200;-71
2022/05/09 05:29:24;;;;;;;11.82;5.10;;;12.70;99.90;;;;;;2067871;28;20120;-71